Boston, Massachusetts
Traffic Map
Current Weather Conditions
Boston, Massachusetts
Clear
Clear
13°
Feels Like: 13°
Wind Chill: 13° Ceiling: Unl
Heat Index: 13° Visibility: 10mi
Dew Point: Wind: 9mph
Humidity: 51% Direction: 330° (NNW)
Pressure: 30.19in Gusts: 0mph
Raw Report DataKBOS 260254Z 33008KT 10SM CLR 13/03 A3019 RMK AO2 SLP222 T01280028 51015
Traffic Incident Summary
Active as of:
Severity:
Category:
InformationThere was an issue retrieving the traffic information for this location. Please try a different location or try again shortly.
Advertisements
Track Severe Weather on mobile